sensor_id;sensor_type;location;lat;lon;timestamp;P1;durP1;ratioP1;P2;durP2;ratioP2
14396;SDS011;50653;47.810;13.022;2023-05-10T00:00:23;10.35;;;9.55;;
14396;SDS011;50653;47.810;13.022;2023-05-10T00:02:49;11.03;;;10.23;;
14396;SDS011;50653;47.810;13.022;2023-05-10T00:05:15;10.63;;;9.60;;
14396;SDS011;50653;47.810;13.022;2023-05-10T00:07:40;10.88;;;10.00;;
14396;SDS011;50653;47.810;13.022;2023-05-10T00:10:09;10.82;;;10.13;;
14396;SDS011;50653;47.810;13.022;2023-05-10T00:12:35;11.23;;;10.15;;
14396;SDS011;50653;47.810;13.022;2023-05-10T00:15:01;10.25;;;9.35;;
14396;SDS011;50653;47.810;13.022;2023-05-10T00:17:28;10.40;;;9.40;;
14396;SDS011;50653;47.810;13.022;2023-05-10T00:19:53;9.88;;;9.13;;
14396;SDS011;50653;47.810;13.022;2023-05-10T00:22:19;8.43;;;7.73;;
14396;SDS011;50653;47.810;13.022;2023-05-10T00:24:45;7.35;;;6.85;;
14396;SDS011;50653;47.810;13.022;2023-05-10T00:27:10;8.60;;;7.80;;
14396;SDS011;50653;47.810;13.022;2023-05-10T00:29:36;8.27;;;7.77;;
14396;SDS011;50653;47.810;13.022;2023-05-10T00:32:02;8.50;;;7.90;;
14396;SDS011;50653;47.810;13.022;2023-05-10T00:34:27;8.85;;;8.02;;
14396;SDS011;50653;47.810;13.022;2023-05-10T00:36:53;7.80;;;7.30;;
14396;SDS011;50653;47.810;13.022;2023-05-10T00:39:19;8.17;;;7.37;;
14396;SDS011;50653;47.810;13.022;2023-05-10T00:41:45;7.30;;;6.80;;
14396;SDS011;50653;47.810;13.022;2023-05-10T00:44:11;7.63;;;7.03;;
14396;SDS011;50653;47.810;13.022;2023-05-10T00:46:36;7.13;;;6.65;;
14396;SDS011;50653;47.810;13.022;2023-05-10T00:49:02;7.88;;;7.28;;
14396;SDS011;50653;47.810;13.022;2023-05-10T00:51:28;7.45;;;7.05;;
14396;SDS011;50653;47.810;13.022;2023-05-10T00:53:54;8.05;;;7.35;;
14396;SDS011;50653;47.810;13.022;2023-05-10T00:56:21;8.30;;;7.70;;
14396;SDS011;50653;47.810;13.022;2023-05-10T00:58:48;8.40;;;7.80;;
14396;SDS011;50653;47.810;13.022;2023-05-10T01:01:14;9.05;;;8.25;;
14396;SDS011;50653;47.810;13.022;2023-05-10T01:03:40;8.20;;;7.50;;
14396;SDS011;50653;47.810;13.022;2023-05-10T01:06:06;7.20;;;6.70;;
14396;SDS011;50653;47.810;13.022;2023-05-10T01:08:32;12.98;;;7.85;;
14396;SDS011;50653;47.810;13.022;2023-05-10T01:10:58;8.52;;;7.93;;
14396;SDS011;50653;47.810;13.022;2023-05-10T01:13:29;12.37;;;7.70;;
14396;SDS011;50653;47.810;13.022;2023-05-10T01:16:04;8.30;;;7.60;;
14396;SDS011;50653;47.810;13.022;2023-05-10T01:18:32;9.10;;;6.70;;
14396;SDS011;50653;47.810;13.022;2023-05-10T01:29:43;3.90;;;3.60;;
14396;SDS011;50653;47.810;13.022;2023-05-10T01:35:26;3.05;;;2.85;;
14396;SDS011;50653;47.810;13.022;2023-05-10T01:37:59;2.57;;;2.47;;
14396;SDS011;50653;47.810;13.022;2023-05-10T01:43:41;8.90;;;8.20;;
14396;SDS011;50653;47.810;13.022;2023-05-10T01:46:20;9.85;;;8.95;;
14396;SDS011;50653;47.810;13.022;2023-05-10T01:48:52;2.90;;;2.70;;
14396;SDS011;50653;47.810;13.022;2023-05-10T01:51:23;2.75;;;2.65;;
14396;SDS011;50653;47.810;13.022;2023-05-10T01:53:54;3.22;;;3.00;;
14396;SDS011;50653;47.810;13.022;2023-05-10T01:56:27;5.43;;;5.03;;
14396;SDS011;50653;47.810;13.022;2023-05-10T01:58:55;5.95;;;5.63;;
14396;SDS011;50653;47.810;13.022;2023-05-10T02:01:23;5.50;;;5.10;;
14396;SDS011;50653;47.810;13.022;2023-05-10T02:03:51;5.28;;;5.07;;
14396;SDS011;50653;47.810;13.022;2023-05-10T02:06:18;4.10;;;3.75;;
14396;SDS011;50653;47.810;13.022;2023-05-10T02:08:47;5.30;;;4.10;;
14396;SDS011;50653;47.810;13.022;2023-05-10T02:11:15;4.18;;;3.80;;
14396;SDS011;50653;47.810;13.022;2023-05-10T02:13:43;3.53;;;3.33;;
14396;SDS011;50653;47.810;13.022;2023-05-10T02:16:12;2.90;;;2.70;;
14396;SDS011;50653;47.810;13.022;2023-05-10T02:18:39;2.70;;;2.60;;
14396;SDS011;50653;47.810;13.022;2023-05-10T02:21:06;2.50;;;2.30;;
14396;SDS011;50653;47.810;13.022;2023-05-10T02:23:34;2.67;;;2.47;;
14396;SDS011;50653;47.810;13.022;2023-05-10T02:26:01;2.47;;;2.38;;
14396;SDS011;50653;47.810;13.022;2023-05-10T02:28:27;4.07;;;3.78;;
14396;SDS011;50653;47.810;13.022;2023-05-10T02:30:54;5.90;;;5.40;;
14396;SDS011;50653;47.810;13.022;2023-05-10T02:33:21;5.82;;;5.43;;
14396;SDS011;50653;47.810;13.022;2023-05-10T02:35:47;4.47;;;4.07;;
14396;SDS011;50653;47.810;13.022;2023-05-10T02:38:14;4.30;;;3.38;;
14396;SDS011;50653;47.810;13.022;2023-05-10T02:40:41;3.80;;;3.50;;
14396;SDS011;50653;47.810;13.022;2023-05-10T02:43:09;3.20;;;3.00;;
14396;SDS011;50653;47.810;13.022;2023-05-10T02:45:38;3.20;;;2.90;;
14396;SDS011;50653;47.810;13.022;2023-05-10T02:48:05;2.67;;;2.57;;
14396;SDS011;50653;47.810;13.022;2023-05-10T02:50:32;3.42;;;3.22;;
14396;SDS011;50653;47.810;13.022;2023-05-10T02:53:00;3.00;;;2.80;;
14396;SDS011;50653;47.810;13.022;2023-05-10T02:55:31;2.83;;;2.63;;
14396;SDS011;50653;47.810;13.022;2023-05-10T02:57:59;3.85;;;2.78;;
14396;SDS011;50653;47.810;13.022;2023-05-10T03:00:26;2.80;;;2.70;;
14396;SDS011;50653;47.810;13.022;2023-05-10T03:02:52;3.63;;;3.33;;
14396;SDS011;50653;47.810;13.022;2023-05-10T03:05:19;6.10;;;5.60;;
14396;SDS011;50653;47.810;13.022;2023-05-10T03:07:45;3.67;;;3.47;;
14396;SDS011;50653;47.810;13.022;2023-05-10T03:10:12;3.20;;;2.90;;
14396;SDS011;50653;47.810;13.022;2023-05-10T03:15:37;3.50;;;3.30;;
14396;SDS011;50653;47.810;13.022;2023-05-10T03:18:18;4.05;;;3.75;;
14396;SDS011;50653;47.810;13.022;2023-05-10T03:20:48;3.17;;;2.97;;
14396;SDS011;50653;47.810;13.022;2023-05-10T03:25:52;4.63;;;4.30;;
14396;SDS011;50653;47.810;13.022;2023-05-10T03:28:18;4.10;;;3.90;;
14396;SDS011;50653;47.810;13.022;2023-05-10T03:30:46;4.15;;;3.95;;
14396;SDS011;50653;47.810;13.022;2023-05-10T06:11:11;6.55;;;6.15;;
14396;SDS011;50653;47.810;13.022;2023-05-10T06:13:36;6.72;;;6.20;;
14396;SDS011;50653;47.810;13.022;2023-05-10T06:16:02;6.40;;;6.00;;
14396;SDS011;50653;47.810;13.022;2023-05-10T06:18:28;6.20;;;5.80;;
14396;SDS011;50653;47.810;13.022;2023-05-10T06:20:53;6.50;;;6.10;;
14396;SDS011;50653;47.810;13.022;2023-05-10T06:23:19;7.03;;;6.43;;
14396;SDS011;50653;47.810;13.022;2023-05-10T06:25:45;6.53;;;6.13;;
14396;SDS011;50653;47.810;13.022;2023-05-10T06:28:10;9.65;;;8.85;;
14396;SDS011;50653;47.810;13.022;2023-05-10T06:30:36;7.03;;;6.43;;
14396;SDS011;50653;47.810;13.022;2023-05-10T06:33:02;5.97;;;5.47;;
14396;SDS011;50653;47.810;13.022;2023-05-10T06:35:28;7.00;;;6.50;;
14396;SDS011;50653;47.810;13.022;2023-05-10T06:37:54;7.00;;;6.40;;
14396;SDS011;50653;47.810;13.022;2023-05-10T06:40:20;6.88;;;6.47;;
14396;SDS011;50653;47.810;13.022;2023-05-10T06:42:46;7.50;;;6.70;;
14396;SDS011;50653;47.810;13.022;2023-05-10T06:45:13;7.20;;;6.50;;
14396;SDS011;50653;47.810;13.022;2023-05-10T06:47:39;7.65;;;7.05;;
14396;SDS011;50653;47.810;13.022;2023-05-10T06:50:06;6.63;;;6.13;;
14396;SDS011;50653;47.810;13.022;2023-05-10T06:52:36;6.68;;;6.20;;
14396;SDS011;50653;47.810;13.022;2023-05-10T06:55:02;5.88;;;5.45;;
14396;SDS011;50653;47.810;13.022;2023-05-10T06:57:29;5.38;;;5.07;;
14396;SDS011;50653;47.810;13.022;2023-05-10T06:59:55;6.10;;;5.60;;
14396;SDS011;50653;47.810;13.022;2023-05-10T07:02:23;4.80;;;4.50;;
14396;SDS011;50653;47.810;13.022;2023-05-10T07:04:49;5.20;;;4.80;;
14396;SDS011;50653;47.810;13.022;2023-05-10T07:07:15;5.50;;;5.10;;
14396;SDS011;50653;47.810;13.022;2023-05-10T07:09:40;5.13;;;4.73;;
14396;SDS011;50653;47.810;13.022;2023-05-10T07:12:07;5.72;;;5.25;;
14396;SDS011;50653;47.810;13.022;2023-05-10T07:14:32;4.93;;;4.60;;
14396;SDS011;50653;47.810;13.022;2023-05-10T07:16:58;5.60;;;5.10;;
14396;SDS011;50653;47.810;13.022;2023-05-10T07:19:23;5.87;;;5.30;;
14396;SDS011;50653;47.810;13.022;2023-05-10T07:21:49;5.73;;;5.33;;
14396;SDS011;50653;47.810;13.022;2023-05-10T07:24:15;5.70;;;5.30;;
14396;SDS011;50653;47.810;13.022;2023-05-10T07:26:41;5.70;;;5.10;;
14396;SDS011;50653;47.810;13.022;2023-05-10T07:29:07;6.53;;;5.80;;
14396;SDS011;50653;47.810;13.022;2023-05-10T07:31:32;5.72;;;5.10;;
14396;SDS011;50653;47.810;13.022;2023-05-10T07:33:58;5.70;;;5.20;;
14396;SDS011;50653;47.810;13.022;2023-05-10T07:36:24;5.20;;;4.70;;
14396;SDS011;50653;47.810;13.022;2023-05-10T07:38:49;5.60;;;5.10;;
14396;SDS011;50653;47.810;13.022;2023-05-10T07:41:15;6.25;;;5.85;;
14396;SDS011;50653;47.810;13.022;2023-05-10T07:43:41;6.63;;;5.25;;
14396;SDS011;50653;47.810;13.022;2023-05-10T07:46:07;6.03;;;5.60;;
14396;SDS011;50653;47.810;13.022;2023-05-10T07:48:36;5.97;;;5.57;;
14396;SDS011;50653;47.810;13.022;2023-05-10T07:51:02;6.00;;;5.40;;
14396;SDS011;50653;47.810;13.022;2023-05-10T07:53:28;6.00;;;5.60;;
14396;SDS011;50653;47.810;13.022;2023-05-10T07:55:54;5.37;;;4.87;;
14396;SDS011;50653;47.810;13.022;2023-05-10T07:58:23;5.47;;;5.13;;
14396;SDS011;50653;47.810;13.022;2023-05-10T08:00:49;5.53;;;5.13;;
14396;SDS011;50653;47.810;13.022;2023-05-10T08:03:15;5.80;;;5.30;;
14396;SDS011;50653;47.810;13.022;2023-05-10T08:05:41;6.13;;;5.73;;
14396;SDS011;50653;47.810;13.022;2023-05-10T08:08:07;6.00;;;5.40;;
14396;SDS011;50653;47.810;13.022;2023-05-10T08:10:32;5.13;;;4.83;;
14396;SDS011;50653;47.810;13.022;2023-05-10T08:12:58;5.23;;;4.93;;
14396;SDS011;50653;47.810;13.022;2023-05-10T08:15:24;6.00;;;5.60;;
14396;SDS011;50653;47.810;13.022;2023-05-10T08:17:51;5.63;;;5.23;;
14396;SDS011;50653;47.810;13.022;2023-05-10T08:20:17;5.82;;;4.90;;
14396;SDS011;50653;47.810;13.022;2023-05-10T08:22:44;4.90;;;4.60;;
14396;SDS011;50653;47.810;13.022;2023-05-10T08:25:11;5.00;;;4.70;;
14396;SDS011;50653;47.810;13.022;2023-05-10T08:27:36;5.85;;;5.43;;
14396;SDS011;50653;47.810;13.022;2023-05-10T08:30:02;5.90;;;5.50;;
14396;SDS011;50653;47.810;13.022;2023-05-10T08:32:28;6.80;;;6.10;;
14396;SDS011;50653;47.810;13.022;2023-05-10T08:34:53;5.37;;;4.97;;
14396;SDS011;50653;47.810;13.022;2023-05-10T08:37:23;4.90;;;3.80;;
14396;SDS011;50653;47.810;13.022;2023-05-10T08:39:48;4.82;;;4.53;;
14396;SDS011;50653;47.810;13.022;2023-05-10T08:42:15;4.57;;;4.37;;
14396;SDS011;50653;47.810;13.022;2023-05-10T08:44:48;4.40;;;4.20;;
14396;SDS011;50653;47.810;13.022;2023-05-10T08:47:15;4.60;;;4.20;;
14396;SDS011;50653;47.810;13.022;2023-05-10T08:49:43;4.90;;;3.50;;
14396;SDS011;50653;47.810;13.022;2023-05-10T08:52:12;4.30;;;3.90;;
14396;SDS011;50653;47.810;13.022;2023-05-10T08:54:40;1.88;;;1.77;;
14396;SDS011;50653;47.810;13.022;2023-05-10T08:57:06;1.40;;;0.70;;
14396;SDS011;50653;47.810;13.022;2023-05-10T08:59:32;1.17;;;0.97;;
14396;SDS011;50653;47.810;13.022;2023-05-10T09:01:58;0.90;;;0.70;;
14396;SDS011;50653;47.810;13.022;2023-05-10T09:04:24;1.27;;;0.80;;
14396;SDS011;50653;47.810;13.022;2023-05-10T09:06:50;1.00;;;0.90;;
14396;SDS011;50653;47.810;13.022;2023-05-10T09:09:17;0.98;;;0.63;;
14396;SDS011;50653;47.810;13.022;2023-05-10T09:11:43;1.73;;;0.60;;
14396;SDS011;50653;47.810;13.022;2023-05-10T09:14:09;1.30;;;0.95;;
14396;SDS011;50653;47.810;13.022;2023-05-10T09:16:37;1.70;;;1.00;;
14396;SDS011;50653;47.810;13.022;2023-05-10T09:19:03;1.58;;;0.85;;
14396;SDS011;50653;47.810;13.022;2023-05-10T09:21:29;0.80;;;0.80;;
14396;SDS011;50653;47.810;13.022;2023-05-10T09:23:56;1.08;;;0.85;;
14396;SDS011;50653;47.810;13.022;2023-05-10T09:26:22;1.77;;;0.87;;
14396;SDS011;50653;47.810;13.022;2023-05-10T09:28:52;1.40;;;0.82;;
14396;SDS011;50653;47.810;13.022;2023-05-10T09:31:18;1.08;;;0.90;;
14396;SDS011;50653;47.810;13.022;2023-05-10T09:33:45;1.00;;;0.82;;
14396;SDS011;50653;47.810;13.022;2023-05-10T09:36:12;1.70;;;1.00;;
14396;SDS011;50653;47.810;13.022;2023-05-10T09:38:47;1.70;;;1.10;;
14396;SDS011;50653;47.810;13.022;2023-05-10T09:43:47;1.05;;;0.95;;
14396;SDS011;50653;47.810;13.022;2023-05-10T09:46:13;2.00;;;0.93;;
14396;SDS011;50653;47.810;13.022;2023-05-10T09:48:41;1.00;;;0.90;;
14396;SDS011;50653;47.810;13.022;2023-05-10T09:51:21;1.60;;;0.90;;
14396;SDS011;50653;47.810;13.022;2023-05-10T09:53:48;1.90;;;1.30;;
14396;SDS011;50653;47.810;13.022;2023-05-10T09:56:33;1.33;;;1.23;;
14396;SDS011;50653;47.810;13.022;2023-05-10T09:59:04;1.60;;;1.40;;
14396;SDS011;50653;47.810;13.022;2023-05-10T10:01:31;2.33;;;1.98;;
14396;SDS011;50653;47.810;13.022;2023-05-10T10:03:56;1.70;;;1.60;;
14396;SDS011;50653;47.810;13.022;2023-05-10T10:06:23;1.70;;;1.60;;
14396;SDS011;50653;47.810;13.022;2023-05-10T10:08:50;2.22;;;1.90;;
14396;SDS011;50653;47.810;13.022;2023-05-10T10:11:16;1.90;;;1.80;;
14396;SDS011;50653;47.810;13.022;2023-05-10T10:13:42;1.40;;;1.30;;
14396;SDS011;50653;47.810;13.022;2023-05-10T10:16:08;1.60;;;1.50;;
14396;SDS011;50653;47.810;13.022;2023-05-10T10:18:35;1.27;;;1.00;;
14396;SDS011;50653;47.810;13.022;2023-05-10T10:21:07;1.15;;;1.00;;
14396;SDS011;50653;47.810;13.022;2023-05-10T10:23:36;1.02;;;0.93;;
14396;SDS011;50653;47.810;13.022;2023-05-10T10:26:02;1.10;;;1.00;;
14396;SDS011;50653;47.810;13.022;2023-05-10T10:30:54;1.40;;;0.90;;
14396;SDS011;50653;47.810;13.022;2023-05-10T10:36:01;1.50;;;0.65;;
14396;SDS011;50653;47.810;13.022;2023-05-10T10:57:31;0.80;;;0.70;;
14396;SDS011;50653;47.810;13.022;2023-05-10T11:00:19;1.00;;;0.80;;
14396;SDS011;50653;47.810;13.022;2023-05-10T11:02:49;1.40;;;0.70;;
14396;SDS011;50653;47.810;13.022;2023-05-10T11:05:36;1.10;;;0.70;;
14396;SDS011;50653;47.810;13.022;2023-05-10T11:10:53;2.33;;;0.80;;
14396;SDS011;50653;47.810;13.022;2023-05-10T11:15:59;1.70;;;0.70;;
14396;SDS011;50653;47.810;13.022;2023-05-10T11:19:03;1.00;;;0.90;;
14396;SDS011;50653;47.810;13.022;2023-05-10T11:21:34;1.77;;;1.67;;
14396;SDS011;50653;47.810;13.022;2023-05-10T11:24:21;1.70;;;1.50;;
14396;SDS011;50653;47.810;13.022;2023-05-10T11:26:52;0.90;;;0.80;;
14396;SDS011;50653;47.810;13.022;2023-05-10T11:29:19;1.60;;;1.00;;
14396;SDS011;50653;47.810;13.022;2023-05-10T11:31:45;1.10;;;1.00;;
14396;SDS011;50653;47.810;13.022;2023-05-10T11:34:12;1.10;;;0.90;;
14396;SDS011;50653;47.810;13.022;2023-05-10T11:36:59;1.00;;;0.90;;
14396;SDS011;50653;47.810;13.022;2023-05-10T11:39:28;1.10;;;1.00;;
14396;SDS011;50653;47.810;13.022;2023-05-10T11:41:55;0.80;;;0.70;;
14396;SDS011;50653;47.810;13.022;2023-05-10T11:44:21;0.88;;;0.70;;
14396;SDS011;50653;47.810;13.022;2023-05-10T11:46:47;1.20;;;0.70;;
14396;SDS011;50653;47.810;13.022;2023-05-10T11:49:14;1.17;;;0.90;;
14396;SDS011;50653;47.810;13.022;2023-05-10T11:51:40;0.80;;;0.80;;
14396;SDS011;50653;47.810;13.022;2023-05-10T11:54:08;2.20;;;0.80;;
14396;SDS011;50653;47.810;13.022;2023-05-10T11:56:36;0.98;;;0.65;;
14396;SDS011;50653;47.810;13.022;2023-05-10T11:59:03;2.38;;;0.80;;
14396;SDS011;50653;47.810;13.022;2023-05-10T12:01:29;1.20;;;0.70;;
14396;SDS011;50653;47.810;13.022;2023-05-10T12:03:56;0.77;;;0.70;;
14396;SDS011;50653;47.810;13.022;2023-05-10T12:06:26;0.80;;;0.70;;
14396;SDS011;50653;47.810;13.022;2023-05-10T12:08:53;0.90;;;0.80;;
14396;SDS011;50653;47.810;13.022;2023-05-10T12:11:19;1.42;;;0.98;;
14396;SDS011;50653;47.810;13.022;2023-05-10T12:13:49;2.30;;;1.40;;
14396;SDS011;50653;47.810;13.022;2023-05-10T12:16:19;0.90;;;0.80;;
14396;SDS011;50653;47.810;13.022;2023-05-10T12:18:49;1.25;;;0.90;;
14396;SDS011;50653;47.810;13.022;2023-05-10T12:21:16;1.00;;;0.90;;
14396;SDS011;50653;47.810;13.022;2023-05-10T12:23:42;2.20;;;0.90;;
14396;SDS011;50653;47.810;13.022;2023-05-10T12:26:11;3.25;;;1.10;;
14396;SDS011;50653;47.810;13.022;2023-05-10T12:28:37;2.10;;;1.10;;
14396;SDS011;50653;47.810;13.022;2023-05-10T12:31:05;2.20;;;1.70;;
14396;SDS011;50653;47.810;13.022;2023-05-10T12:33:37;1.90;;;1.13;;
14396;SDS011;50653;47.810;13.022;2023-05-10T12:36:04;1.30;;;1.20;;
14396;SDS011;50653;47.810;13.022;2023-05-10T12:38:32;1.30;;;1.20;;
14396;SDS011;50653;47.810;13.022;2023-05-10T12:41:11;8.98;;;3.10;;
14396;SDS011;50653;47.810;13.022;2023-05-10T12:43:39;1.30;;;1.20;;
14396;SDS011;50653;47.810;13.022;2023-05-10T12:46:08;1.67;;;1.58;;
14396;SDS011;50653;47.810;13.022;2023-05-10T12:48:35;2.33;;;1.40;;
14396;SDS011;50653;47.810;13.022;2023-05-10T12:51:02;2.40;;;1.60;;
14396;SDS011;50653;47.810;13.022;2023-05-10T12:53:29;2.10;;;1.30;;
14396;SDS011;50653;47.810;13.022;2023-05-10T12:55:54;2.30;;;1.60;;
14396;SDS011;50653;47.810;13.022;2023-05-10T12:58:20;2.00;;;1.30;;
14396;SDS011;50653;47.810;13.022;2023-05-10T13:00:46;1.20;;;1.10;;
14396;SDS011;50653;47.810;13.022;2023-05-10T13:03:12;1.30;;;1.15;;
14396;SDS011;50653;47.810;13.022;2023-05-10T13:05:37;1.13;;;1.03;;
14396;SDS011;50653;47.810;13.022;2023-05-10T13:08:03;1.50;;;1.40;;
14396;SDS011;50653;47.810;13.022;2023-05-10T13:10:29;1.10;;;1.00;;
14396;SDS011;50653;47.810;13.022;2023-05-10T13:12:56;1.70;;;1.27;;
14396;SDS011;50653;47.810;13.022;2023-05-10T13:15:23;1.63;;;1.52;;
14396;SDS011;50653;47.810;13.022;2023-05-10T13:17:49;1.55;;;1.45;;
14396;SDS011;50653;47.810;13.022;2023-05-10T13:20:15;1.50;;;1.40;;
14396;SDS011;50653;47.810;13.022;2023-05-10T13:22:41;1.42;;;1.33;;
14396;SDS011;50653;47.810;13.022;2023-05-10T13:25:08;1.60;;;1.20;;
14396;SDS011;50653;47.810;13.022;2023-05-10T13:27:33;2.10;;;2.00;;
14396;SDS011;50653;47.810;13.022;2023-05-10T13:29:59;1.60;;;1.23;;
14396;SDS011;50653;47.810;13.022;2023-05-10T13:32:25;1.27;;;1.17;;
14396;SDS011;50653;47.810;13.022;2023-05-10T13:34:51;1.90;;;1.40;;
14396;SDS011;50653;47.810;13.022;2023-05-10T13:37:17;2.50;;;1.60;;
14396;SDS011;50653;47.810;13.022;2023-05-10T13:39:42;1.23;;;1.13;;
14396;SDS011;50653;47.810;13.022;2023-05-10T13:42:08;1.87;;;1.20;;
14396;SDS011;50653;47.810;13.022;2023-05-10T13:44:34;2.50;;;1.27;;
14396;SDS011;50653;47.810;13.022;2023-05-10T13:47:01;1.55;;;1.40;;
14396;SDS011;50653;47.810;13.022;2023-05-10T13:49:26;1.60;;;1.50;;
14396;SDS011;50653;47.810;13.022;2023-05-10T13:51:52;1.40;;;1.17;;
14396;SDS011;50653;47.810;13.022;2023-05-10T13:54:18;1.25;;;1.15;;
14396;SDS011;50653;47.810;13.022;2023-05-10T13:56:44;1.40;;;1.30;;
14396;SDS011;50653;47.810;13.022;2023-05-10T13:59:12;1.27;;;1.17;;
14396;SDS011;50653;47.810;13.022;2023-05-10T14:01:39;1.70;;;1.60;;
14396;SDS011;50653;47.810;13.022;2023-05-10T14:04:05;2.10;;;1.02;;
14396;SDS011;50653;47.810;13.022;2023-05-10T14:06:35;1.00;;;0.90;;
14396;SDS011;50653;47.810;13.022;2023-05-10T14:09:01;1.70;;;0.80;;
14396;SDS011;50653;47.810;13.022;2023-05-10T14:11:27;2.85;;;2.65;;
14396;SDS011;50653;47.810;13.022;2023-05-10T14:13:53;2.10;;;0.70;;
14396;SDS011;50653;47.810;13.022;2023-05-10T14:16:19;1.10;;;0.80;;
14396;SDS011;50653;47.810;13.022;2023-05-10T14:18:45;1.30;;;0.73;;
14396;SDS011;50653;47.810;13.022;2023-05-10T14:21:11;1.95;;;0.77;;
14396;SDS011;50653;47.810;13.022;2023-05-10T14:23:37;1.73;;;0.88;;
14396;SDS011;50653;47.810;13.022;2023-05-10T14:26:02;1.00;;;0.70;;
14396;SDS011;50653;47.810;13.022;2023-05-10T14:28:28;1.20;;;1.10;;
14396;SDS011;50653;47.810;13.022;2023-05-10T14:30:54;1.30;;;1.08;;
14396;SDS011;50653;47.810;13.022;2023-05-10T14:33:19;1.97;;;1.13;;
14396;SDS011;50653;47.810;13.022;2023-05-10T14:35:46;3.10;;;1.20;;
14396;SDS011;50653;47.810;13.022;2023-05-10T14:38:12;1.30;;;1.20;;
14396;SDS011;50653;47.810;13.022;2023-05-10T14:40:38;2.30;;;1.00;;
14396;SDS011;50653;47.810;13.022;2023-05-10T14:43:04;0.90;;;0.80;;
14396;SDS011;50653;47.810;13.022;2023-05-10T14:45:30;1.83;;;1.00;;
14396;SDS011;50653;47.810;13.022;2023-05-10T14:47:56;1.58;;;0.90;;
14396;SDS011;50653;47.810;13.022;2023-05-10T14:50:22;1.10;;;1.00;;
14396;SDS011;50653;47.810;13.022;2023-05-10T14:52:48;2.90;;;1.00;;
14396;SDS011;50653;47.810;13.022;2023-05-10T14:55:14;1.50;;;1.00;;
14396;SDS011;50653;47.810;13.022;2023-05-10T14:57:40;1.80;;;0.98;;
14396;SDS011;50653;47.810;13.022;2023-05-10T15:00:06;1.40;;;1.00;;
14396;SDS011;50653;47.810;13.022;2023-05-10T15:02:32;1.20;;;1.10;;
14396;SDS011;50653;47.810;13.022;2023-05-10T15:04:57;0.90;;;0.80;;
14396;SDS011;50653;47.810;13.022;2023-05-10T15:07:23;3.80;;;3.50;;
14396;SDS011;50653;47.810;13.022;2023-05-10T15:09:52;2.85;;;2.60;;
14396;SDS011;50653;47.810;13.022;2023-05-10T15:12:18;2.20;;;1.10;;
14396;SDS011;50653;47.810;13.022;2023-05-10T15:14:44;2.25;;;1.50;;
14396;SDS011;50653;47.810;13.022;2023-05-10T15:17:09;1.73;;;1.60;;
14396;SDS011;50653;47.810;13.022;2023-05-10T15:19:35;1.80;;;1.70;;
14396;SDS011;50653;47.810;13.022;2023-05-10T15:22:01;2.38;;;1.25;;
14396;SDS011;50653;47.810;13.022;2023-05-10T15:24:27;2.15;;;1.23;;
14396;SDS011;50653;47.810;13.022;2023-05-10T15:26:54;2.10;;;1.90;;
14396;SDS011;50653;47.810;13.022;2023-05-10T15:29:20;2.30;;;1.70;;
14396;SDS011;50653;47.810;13.022;2023-05-10T15:31:49;2.80;;;2.17;;
14396;SDS011;50653;47.810;13.022;2023-05-10T15:34:16;3.33;;;3.13;;
14396;SDS011;50653;47.810;13.022;2023-05-10T15:36:42;2.70;;;2.60;;
14396;SDS011;50653;47.810;13.022;2023-05-10T15:39:08;3.10;;;2.90;;
14396;SDS011;50653;47.810;13.022;2023-05-10T15:41:34;3.40;;;3.20;;
14396;SDS011;50653;47.810;13.022;2023-05-10T15:44:00;3.60;;;3.40;;
14396;SDS011;50653;47.810;13.022;2023-05-10T15:46:27;2.90;;;2.70;;
14396;SDS011;50653;47.810;13.022;2023-05-10T15:48:53;3.67;;;2.50;;
14396;SDS011;50653;47.810;13.022;2023-05-10T15:51:19;2.70;;;2.50;;
14396;SDS011;50653;47.810;13.022;2023-05-10T15:53:45;3.67;;;2.10;;
14396;SDS011;50653;47.810;13.022;2023-05-10T15:56:11;4.82;;;2.30;;
14396;SDS011;50653;47.810;13.022;2023-05-10T15:58:37;2.70;;;2.20;;
14396;SDS011;50653;47.810;13.022;2023-05-10T16:01:04;3.08;;;2.33;;
14396;SDS011;50653;47.810;13.022;2023-05-10T16:03:30;2.97;;;2.45;;
14396;SDS011;50653;47.810;13.022;2023-05-10T16:05:57;2.80;;;2.45;;
14396;SDS011;50653;47.810;13.022;2023-05-10T16:08:22;2.90;;;2.70;;
14396;SDS011;50653;47.810;13.022;2023-05-10T16:10:50;2.90;;;2.37;;
14396;SDS011;50653;47.810;13.022;2023-05-10T16:13:16;2.70;;;2.05;;
14396;SDS011;50653;47.810;13.022;2023-05-10T16:15:42;2.60;;;2.50;;
14396;SDS011;50653;47.810;13.022;2023-05-10T16:18:08;2.70;;;2.50;;
14396;SDS011;50653;47.810;13.022;2023-05-10T16:20:35;3.20;;;3.00;;
14396;SDS011;50653;47.810;13.022;2023-05-10T16:23:02;2.70;;;2.50;;
14396;SDS011;50653;47.810;13.022;2023-05-10T16:25:28;2.55;;;2.40;;
14396;SDS011;50653;47.810;13.022;2023-05-10T16:27:54;1.30;;;1.20;;
14396;SDS011;50653;47.810;13.022;2023-05-10T16:30:20;1.10;;;1.00;;
14396;SDS011;50653;47.810;13.022;2023-05-10T16:32:45;2.60;;;2.50;;
14396;SDS011;50653;47.810;13.022;2023-05-10T16:35:11;2.57;;;2.47;;
14396;SDS011;50653;47.810;13.022;2023-05-10T16:37:36;3.70;;;2.30;;
14396;SDS011;50653;47.810;13.022;2023-05-10T16:40:02;5.97;;;2.40;;
14396;SDS011;50653;47.810;13.022;2023-05-10T16:42:29;1.60;;;1.50;;
14396;SDS011;50653;47.810;13.022;2023-05-10T16:44:54;3.20;;;2.20;;
14396;SDS011;50653;47.810;13.022;2023-05-10T16:47:20;1.50;;;1.30;;
14396;SDS011;50653;47.810;13.022;2023-05-10T16:49:46;2.42;;;2.22;;
14396;SDS011;50653;47.810;13.022;2023-05-10T16:52:11;2.20;;;2.00;;
14396;SDS011;50653;47.810;13.022;2023-05-10T16:54:37;4.10;;;2.15;;
14396;SDS011;50653;47.810;13.022;2023-05-10T16:57:03;1.93;;;1.50;;
14396;SDS011;50653;47.810;13.022;2023-05-10T16:59:29;2.30;;;1.30;;
14396;SDS011;50653;47.810;13.022;2023-05-10T17:01:54;1.83;;;1.63;;
14396;SDS011;50653;47.810;13.022;2023-05-10T17:04:20;2.60;;;2.40;;
14396;SDS011;50653;47.810;13.022;2023-05-10T17:06:46;2.10;;;1.30;;
14396;SDS011;50653;47.810;13.022;2023-05-10T17:09:11;1.17;;;1.07;;
14396;SDS011;50653;47.810;13.022;2023-05-10T17:11:37;1.50;;;1.40;;
14396;SDS011;50653;47.810;13.022;2023-05-10T17:14:03;1.10;;;1.00;;
14396;SDS011;50653;47.810;13.022;2023-05-10T17:16:29;2.40;;;1.67;;
14396;SDS011;50653;47.810;13.022;2023-05-10T17:18:54;3.20;;;1.70;;
14396;SDS011;50653;47.810;13.022;2023-05-10T17:21:20;1.90;;;1.80;;
14396;SDS011;50653;47.810;13.022;2023-05-10T17:23:46;1.80;;;1.65;;
14396;SDS011;50653;47.810;13.022;2023-05-10T17:26:11;1.63;;;1.52;;
14396;SDS011;50653;47.810;13.022;2023-05-10T17:28:37;2.00;;;1.90;;
14396;SDS011;50653;47.810;13.022;2023-05-10T17:31:03;1.67;;;1.57;;
14396;SDS011;50653;47.810;13.022;2023-05-10T17:33:29;1.80;;;1.70;;
14396;SDS011;50653;47.810;13.022;2023-05-10T17:35:54;1.88;;;1.77;;
14396;SDS011;50653;47.810;13.022;2023-05-10T17:38:20;3.65;;;3.35;;
14396;SDS011;50653;47.810;13.022;2023-05-10T17:40:46;2.00;;;1.90;;
14396;SDS011;50653;47.810;13.022;2023-05-10T17:43:12;3.67;;;2.00;;
14396;SDS011;50653;47.810;13.022;2023-05-10T17:45:38;1.50;;;1.40;;
14396;SDS011;50653;47.810;13.022;2023-05-10T17:48:03;1.60;;;1.50;;
14396;SDS011;50653;47.810;13.022;2023-05-10T17:50:29;1.70;;;1.60;;
14396;SDS011;50653;47.810;13.022;2023-05-10T17:52:56;1.60;;;1.50;;
14396;SDS011;50653;47.810;13.022;2023-05-10T17:55:22;1.42;;;1.33;;
14396;SDS011;50653;47.810;13.022;2023-05-10T17:57:47;1.60;;;1.50;;
14396;SDS011;50653;47.810;13.022;2023-05-10T18:00:13;1.70;;;1.60;;
14396;SDS011;50653;47.810;13.022;2023-05-10T18:02:39;2.80;;;1.65;;